sensor_id;sensor_type;location;lat;lon;timestamp;pressure;altitude;pressure_sealevel;temperature;humidity
73297;BME280;61524;50.938;11.396;2023-02-01T00:01:18;99111.50;;;3.12;88.25
73297;BME280;61524;50.938;11.396;2023-02-01T00:03:43;99122.69;;;3.14;88.16
73297;BME280;61524;50.938;11.396;2023-02-01T00:06:09;99113.19;;;3.20;88.05
73297;BME280;61524;50.938;11.396;2023-02-01T00:08:35;99119.84;;;3.15;88.08
73297;BME280;61524;50.938;11.396;2023-02-01T00:11:09;99122.69;;;3.14;88.51
73297;BME280;61524;50.938;11.396;2023-02-01T00:13:39;99123.53;;;3.21;87.57
73297;BME280;61524;50.938;11.396;2023-02-01T00:16:06;99113.16;;;3.13;87.85
73297;BME280;61524;50.938;11.396;2023-02-01T00:18:32;99123.88;;;3.05;88.54
73297;BME280;61524;50.938;11.396;2023-02-01T00:20:58;99122.84;;;3.06;88.50
73297;BME280;61524;50.938;11.396;2023-02-01T00:23:24;99124.91;;;3.10;87.88
73297;BME280;61524;50.938;11.396;2023-02-01T00:25:49;99133.25;;;3.14;87.47
73297;BME280;61524;50.938;11.396;2023-02-01T00:28:14;99118.59;;;3.05;88.16
73297;BME280;61524;50.938;11.396;2023-02-01T00:30:40;99127.13;;;3.07;87.67
73297;BME280;61524;50.938;11.396;2023-02-01T00:33:06;99112.69;;;3.03;87.65
73297;BME280;61524;50.938;11.396;2023-02-01T00:35:33;99120.63;;;3.03;87.09
73297;BME280;61524;50.938;11.396;2023-02-01T00:37:59;99134.78;;;2.95;87.48
73297;BME280;61524;50.938;11.396;2023-02-01T00:40:25;99122.00;;;2.99;87.10
73297;BME280;61524;50.938;11.396;2023-02-01T00:42:51;99124.06;;;3.03;86.63
73297;BME280;61524;50.938;11.396;2023-02-01T00:45:17;99112.84;;;2.95;86.63
73297;BME280;61524;50.938;11.396;2023-02-01T00:47:42;99117.31;;;2.94;87.01
73297;BME280;61524;50.938;11.396;2023-02-01T00:50:08;99123.47;;;3.08;85.81
73297;BME280;61524;50.938;11.396;2023-02-01T00:52:34;99117.41;;;3.07;85.79
73297;BME280;61524;50.938;11.396;2023-02-01T00:54:59;99110.88;;;3.03;85.76
73297;BME280;61524;50.938;11.396;2023-02-01T00:57:25;99116.94;;;2.97;86.24
73297;BME280;61524;50.938;11.396;2023-02-01T00:59:50;99115.84;;;2.85;86.53
73297;BME280;61524;50.938;11.396;2023-02-01T01:02:16;99111.34;;;2.79;86.74
73297;BME280;61524;50.938;11.396;2023-02-01T01:04:41;99111.16;;;2.80;86.61
73297;BME280;61524;50.938;11.396;2023-02-01T01:07:07;99122.72;;;2.79;86.80
73297;BME280;61524;50.938;11.396;2023-02-01T01:09:32;99115.00;;;2.78;86.64
73297;BME280;61524;50.938;11.396;2023-02-01T01:11:58;99113.41;;;2.83;86.33
73297;BME280;61524;50.938;11.396;2023-02-01T01:14:31;99101.22;;;2.82;86.57
73297;BME280;61524;50.938;11.396;2023-02-01T01:16:57;99102.00;;;2.76;86.86
73297;BME280;61524;50.938;11.396;2023-02-01T01:19:22;99096.53;;;2.78;86.67
73297;BME280;61524;50.938;11.396;2023-02-01T01:21:48;99091.69;;;2.81;86.47
73297;BME280;61524;50.938;11.396;2023-02-01T01:24:13;99092.94;;;2.85;86.06
73297;BME280;61524;50.938;11.396;2023-02-01T01:26:38;99100.53;;;3.02;85.30
73297;BME280;61524;50.938;11.396;2023-02-01T01:29:04;99106.19;;;2.99;85.22
73297;BME280;61524;50.938;11.396;2023-02-01T01:31:30;99101.69;;;2.93;85.67
73297;BME280;61524;50.938;11.396;2023-02-01T01:33:57;99095.03;;;3.03;85.47
73297;BME280;61524;50.938;11.396;2023-02-01T01:36:23;99090.72;;;2.96;86.28
73297;BME280;61524;50.938;11.396;2023-02-01T01:38:49;99074.06;;;2.95;86.04
73297;BME280;61524;50.938;11.396;2023-02-01T01:41:18;99092.59;;;3.02;85.93
73297;BME280;61524;50.938;11.396;2023-02-01T01:43:49;99085.44;;;2.96;85.87
73297;BME280;61524;50.938;11.396;2023-02-01T01:46:16;99079.78;;;2.99;85.62
73297;BME280;61524;50.938;11.396;2023-02-01T01:48:42;99078.78;;;3.00;85.64
73297;BME280;61524;50.938;11.396;2023-02-01T01:51:10;99083.09;;;3.14;84.89
73297;BME280;61524;50.938;11.396;2023-02-01T01:53:45;99084.13;;;3.13;84.99
73297;BME280;61524;50.938;11.396;2023-02-01T01:56:13;99082.69;;;3.17;84.72
73297;BME280;61524;50.938;11.396;2023-02-01T01:58:40;99088.97;;;3.16;84.94
73297;BME280;61524;50.938;11.396;2023-02-01T02:01:06;99073.38;;;3.21;84.54
73297;BME280;61524;50.938;11.396;2023-02-01T02:03:43;99069.09;;;3.20;84.64
73297;BME280;61524;50.938;11.396;2023-02-01T02:06:35;99049.22;;;3.24;84.32
73297;BME280;61524;50.938;11.396;2023-02-01T02:09:04;99056.13;;;3.19;84.44
73297;BME280;61524;50.938;11.396;2023-02-01T02:11:29;99050.03;;;3.25;83.79
73297;BME280;61524;50.938;11.396;2023-02-01T02:13:55;99045.78;;;3.30;82.96
73297;BME280;61524;50.938;11.396;2023-02-01T02:16:35;99043.97;;;3.31;83.21
73297;BME280;61524;50.938;11.396;2023-02-01T02:24:45;99042.47;;;3.08;83.63
73297;BME280;61524;50.938;11.396;2023-02-01T02:36:35;99029.44;;;2.94;83.92
73297;BME280;61524;50.938;11.396;2023-02-01T02:39:13;99035.16;;;3.04;83.26
73297;BME280;61524;50.938;11.396;2023-02-01T02:45:03;99038.00;;;3.09;83.13
73297;BME280;61524;50.938;11.396;2023-02-01T02:48:13;99036.56;;;3.00;83.86
73297;BME280;61524;50.938;11.396;2023-02-01T02:53:35;99026.13;;;2.85;84.70
73297;BME280;61524;50.938;11.396;2023-02-01T02:56:22;99041.78;;;2.86;85.64
73297;BME280;61524;50.938;11.396;2023-02-01T02:59:08;99026.91;;;2.72;85.91
73297;BME280;61524;50.938;11.396;2023-02-01T03:01:54;99041.91;;;2.72;85.99
73297;BME280;61524;50.938;11.396;2023-02-01T03:04:38;99032.78;;;2.74;85.71
73297;BME280;61524;50.938;11.396;2023-02-01T03:10:18;99026.69;;;2.67;86.11
73297;BME280;61524;50.938;11.396;2023-02-01T03:12:48;99017.28;;;2.58;87.01
73297;BME280;61524;50.938;11.396;2023-02-01T03:15:24;99012.81;;;2.52;87.38
73297;BME280;61524;50.938;11.396;2023-02-01T03:17:55;99015.66;;;2.57;87.43
73297;BME280;61524;50.938;11.396;2023-02-01T03:20:24;99018.53;;;2.62;86.90
73297;BME280;61524;50.938;11.396;2023-02-01T03:22:51;99006.13;;;2.56;87.19
73297;BME280;61524;50.938;11.396;2023-02-01T03:25:24;99002.66;;;2.49;87.81
73297;BME280;61524;50.938;11.396;2023-02-01T03:28:09;99021.97;;;2.56;87.28
73297;BME280;61524;50.938;11.396;2023-02-01T03:30:40;99030.53;;;2.65;87.24
73297;BME280;61524;50.938;11.396;2023-02-01T03:33:10;99029.09;;;2.69;86.93
73297;BME280;61524;50.938;11.396;2023-02-01T03:41:41;99003.34;;;2.64;87.29
73297;BME280;61524;50.938;11.396;2023-02-01T03:44:31;98989.19;;;2.78;86.77
73297;BME280;61524;50.938;11.396;2023-02-01T03:47:14;98990.81;;;2.79;86.74
73297;BME280;61524;50.938;11.396;2023-02-01T03:49:49;98985.53;;;2.79;86.77
73297;BME280;61524;50.938;11.396;2023-02-01T03:52:38;98985.50;;;2.73;87.12
73297;BME280;61524;50.938;11.396;2023-02-01T03:55:06;98997.09;;;2.78;87.30
73297;BME280;61524;50.938;11.396;2023-02-01T03:57:35;98989.41;;;2.83;87.24
73297;BME280;61524;50.938;11.396;2023-02-01T04:02:30;98985.97;;;2.89;87.11
73297;BME280;61524;50.938;11.396;2023-02-01T04:04:56;98991.81;;;2.78;87.62
73297;BME280;61524;50.938;11.396;2023-02-01T04:07:21;98992.84;;;2.84;87.65
73297;BME280;61524;50.938;11.396;2023-02-01T04:09:47;99004.41;;;2.76;88.15
73297;BME280;61524;50.938;11.396;2023-02-01T04:12:12;98993.06;;;2.89;87.56
73297;BME280;61524;50.938;11.396;2023-02-01T04:14:37;98988.84;;;3.01;86.22
73297;BME280;61524;50.938;11.396;2023-02-01T04:17:03;98995.94;;;3.01;87.16
73297;BME280;61524;50.938;11.396;2023-02-01T04:19:28;98993.53;;;3.06;86.99
73297;BME280;61524;50.938;11.396;2023-02-01T04:21:54;98988.03;;;3.01;87.37
73297;BME280;61524;50.938;11.396;2023-02-01T04:24:20;98986.03;;;3.03;87.61
73297;BME280;61524;50.938;11.396;2023-02-01T04:26:45;98982.97;;;2.99;88.39
73297;BME280;61524;50.938;11.396;2023-02-01T04:29:10;98980.09;;;2.87;90.68
73297;BME280;61524;50.938;11.396;2023-02-01T04:31:36;98971.53;;;2.79;91.57
73297;BME280;61524;50.938;11.396;2023-02-01T04:34:02;98971.09;;;2.69;92.13
73297;BME280;61524;50.938;11.396;2023-02-01T04:36:27;98966.44;;;2.64;92.10
73297;BME280;61524;50.938;11.396;2023-02-01T04:38:53;98957.44;;;2.52;93.10
73297;BME280;61524;50.938;11.396;2023-02-01T04:41:19;98957.63;;;2.44;93.09
73297;BME280;61524;50.938;11.396;2023-02-01T04:43:46;98963.91;;;2.49;92.85
73297;BME280;61524;50.938;11.396;2023-02-01T04:46:12;98958.44;;;2.51;92.30
73297;BME280;61524;50.938;11.396;2023-02-01T04:48:37;98940.78;;;2.51;91.96
73297;BME280;61524;50.938;11.396;2023-02-01T04:51:03;98939.19;;;2.50;92.42
73297;BME280;61524;50.938;11.396;2023-02-01T04:53:28;98926.00;;;2.50;92.18
73297;BME280;61524;50.938;11.396;2023-02-01T04:55:55;98934.50;;;2.52;91.86
73297;BME280;61524;50.938;11.396;2023-02-01T04:58:21;98922.34;;;2.51;92.00
73297;BME280;61524;50.938;11.396;2023-02-01T05:00:47;98926.38;;;2.47;92.55
73297;BME280;61524;50.938;11.396;2023-02-01T05:03:12;98919.69;;;2.45;92.04
73297;BME280;61524;50.938;11.396;2023-02-01T05:05:38;98909.34;;;2.43;92.42
73297;BME280;61524;50.938;11.396;2023-02-01T05:08:03;98895.94;;;2.38;92.38
73297;BME280;61524;50.938;11.396;2023-02-01T05:10:29;98878.50;;;2.37;92.39
73297;BME280;61524;50.938;11.396;2023-02-01T05:12:54;98877.06;;;2.41;92.06
73297;BME280;61524;50.938;11.396;2023-02-01T05:15:38;98884.00;;;2.49;91.71
73297;BME280;61524;50.938;11.396;2023-02-01T05:18:04;98868.38;;;2.47;91.48
73297;BME280;61524;50.938;11.396;2023-02-01T05:20:29;98876.72;;;2.51;91.73
73297;BME280;61524;50.938;11.396;2023-02-01T05:22:55;98878.16;;;2.53;91.08
73297;BME280;61524;50.938;11.396;2023-02-01T05:25:20;98874.28;;;2.49;90.93
73297;BME280;61524;50.938;11.396;2023-02-01T05:27:46;98871.03;;;2.54;90.68
73297;BME280;61524;50.938;11.396;2023-02-01T05:30:11;98875.31;;;2.55;89.99
73297;BME280;61524;50.938;11.396;2023-02-01T05:32:37;98871.66;;;2.56;89.68
73297;BME280;61524;50.938;11.396;2023-02-01T05:35:02;98869.59;;;2.51;89.51
73297;BME280;61524;50.938;11.396;2023-02-01T05:37:28;98863.72;;;2.49;89.88
73297;BME280;61524;50.938;11.396;2023-02-01T05:39:53;98868.41;;;2.54;89.38
73297;BME280;61524;50.938;11.396;2023-02-01T05:42:19;98871.84;;;2.54;88.79
73297;BME280;61524;50.938;11.396;2023-02-01T05:44:44;98875.09;;;2.56;88.87
73297;BME280;61524;50.938;11.396;2023-02-01T05:47:10;98872.28;;;2.65;88.44
73297;BME280;61524;50.938;11.396;2023-02-01T05:49:35;98866.22;;;2.71;87.94
73297;BME280;61524;50.938;11.396;2023-02-01T05:52:01;98870.09;;;2.81;86.75
73297;BME280;61524;50.938;11.396;2023-02-01T05:54:27;98856.91;;;2.88;85.85
73297;BME280;61524;50.938;11.396;2023-02-01T05:56:52;98857.91;;;2.80;85.98
73297;BME280;61524;50.938;11.396;2023-02-01T05:59:18;98852.19;;;2.63;86.88
73297;BME280;61524;50.938;11.396;2023-02-01T06:01:43;98854.81;;;2.63;86.51
73297;BME280;61524;50.938;11.396;2023-02-01T06:04:09;98856.25;;;2.59;87.12
73297;BME280;61524;50.938;11.396;2023-02-01T06:06:34;98863.50;;;2.44;87.96
73297;BME280;61524;50.938;11.396;2023-02-01T06:09:02;98857.44;;;2.44;88.29
73297;BME280;61524;50.938;11.396;2023-02-01T06:11:27;98859.03;;;2.38;87.95
73297;BME280;61524;50.938;11.396;2023-02-01T06:13:53;98857.59;;;2.35;88.96
73297;BME280;61524;50.938;11.396;2023-02-01T06:16:19;98857.00;;;2.47;88.25
73297;BME280;61524;50.938;11.396;2023-02-01T06:18:44;98852.22;;;2.70;86.82
73297;BME280;61524;50.938;11.396;2023-02-01T06:21:09;98859.53;;;2.81;86.51
73297;BME280;61524;50.938;11.396;2023-02-01T06:23:35;98857.91;;;2.80;86.85
73297;BME280;61524;50.938;11.396;2023-02-01T06:26:02;98855.50;;;2.85;86.59
73297;BME280;61524;50.938;11.396;2023-02-01T06:28:29;98849.59;;;2.90;86.25
73297;BME280;61524;50.938;11.396;2023-02-01T06:30:55;98855.88;;;2.96;85.88
73297;BME280;61524;50.938;11.396;2023-02-01T06:33:21;98839.66;;;2.99;85.51
73297;BME280;61524;50.938;11.396;2023-02-01T06:35:46;98850.03;;;3.07;84.83
73297;BME280;61524;50.938;11.396;2023-02-01T06:38:13;98852.66;;;3.07;84.69
73297;BME280;61524;50.938;11.396;2023-02-01T06:40:39;98828.09;;;3.13;83.98
73297;BME280;61524;50.938;11.396;2023-02-01T06:43:07;98843.31;;;3.11;83.87
73297;BME280;61524;50.938;11.396;2023-02-01T06:45:32;98827.50;;;3.18;83.20
73297;BME280;61524;50.938;11.396;2023-02-01T06:47:59;98835.00;;;3.07;83.46
73297;BME280;61524;50.938;11.396;2023-02-01T06:50:26;98823.81;;;2.99;83.23
73297;BME280;61524;50.938;11.396;2023-02-01T06:52:51;98835.38;;;2.84;83.70
73297;BME280;61524;50.938;11.396;2023-02-01T06:55:17;98828.47;;;2.90;83.26
73297;BME280;61524;50.938;11.396;2023-02-01T06:57:42;98824.00;;;2.84;83.78
73297;BME280;61524;50.938;11.396;2023-02-01T07:00:08;98834.34;;;2.79;84.16
73297;BME280;61524;50.938;11.396;2023-02-01T07:02:34;98827.66;;;2.83;83.63
73297;BME280;61524;50.938;11.396;2023-02-01T07:04:59;98834.38;;;2.85;83.71
73297;BME280;61524;50.938;11.396;2023-02-01T07:07:25;98834.19;;;2.87;82.71
73297;BME280;61524;50.938;11.396;2023-02-01T07:09:50;98826.06;;;2.88;83.15
73297;BME280;61524;50.938;11.396;2023-02-01T07:12:16;98829.09;;;2.79;83.05
73297;BME280;61524;50.938;11.396;2023-02-01T07:14:41;98827.06;;;2.81;83.22
73297;BME280;61524;50.938;11.396;2023-02-01T07:17:07;98841.47;;;2.78;83.77
73297;BME280;61524;50.938;11.396;2023-02-01T07:19:32;98832.75;;;2.91;83.19
73297;BME280;61524;50.938;11.396;2023-02-01T07:21:58;98823.00;;;3.05;83.09
73297;BME280;61524;50.938;11.396;2023-02-01T07:24:23;98831.50;;;3.33;81.59
73297;BME280;61524;50.938;11.396;2023-02-01T07:26:49;98834.38;;;3.45;81.14
73297;BME280;61524;50.938;11.396;2023-02-01T07:29:17;98833.13;;;3.61;81.01
73297;BME280;61524;50.938;11.396;2023-02-01T07:31:42;98833.13;;;3.61;80.86
73297;BME280;61524;50.938;11.396;2023-02-01T07:34:07;98839.59;;;3.58;80.23
73297;BME280;61524;50.938;11.396;2023-02-01T07:36:33;98839.19;;;3.55;80.79
73297;BME280;61524;50.938;11.396;2023-02-01T07:38:59;98814.25;;;3.51;81.27
73297;BME280;61524;50.938;11.396;2023-02-01T07:41:25;98831.06;;;3.63;80.20
73297;BME280;61524;50.938;11.396;2023-02-01T07:43:54;98838.81;;;3.58;80.99
73297;BME280;61524;50.938;11.396;2023-02-01T07:46:19;98832.09;;;3.62;80.89
73297;BME280;61524;50.938;11.396;2023-02-01T07:48:45;98830.66;;;3.59;81.00
73297;BME280;61524;50.938;11.396;2023-02-01T07:51:13;98821.72;;;3.60;80.82
73297;BME280;61524;50.938;11.396;2023-02-01T07:53:39;98814.84;;;3.53;81.69
73297;BME280;61524;50.938;11.396;2023-02-01T07:56:11;98828.03;;;3.53;80.90
73297;BME280;61524;50.938;11.396;2023-02-01T07:58:37;98843.66;;;3.54;81.76
73297;BME280;61524;50.938;11.396;2023-02-01T08:01:03;98824.81;;;3.51;81.59
73297;BME280;61524;50.938;11.396;2023-02-01T08:03:53;98824.38;;;3.54;81.84
73297;BME280;61524;50.938;11.396;2023-02-01T08:06:20;98820.31;;;3.58;81.74
73297;BME280;61524;50.938;11.396;2023-02-01T08:08:46;98822.16;;;3.57;81.78
73297;BME280;61524;50.938;11.396;2023-02-01T08:11:13;98832.09;;;3.62;82.56
73297;BME280;61524;50.938;11.396;2023-02-01T08:13:39;98836.34;;;3.69;82.42
73297;BME280;61524;50.938;11.396;2023-02-01T08:16:07;98838.34;;;3.74;82.50
73297;BME280;61524;50.938;11.396;2023-02-01T08:18:33;98856.63;;;3.76;82.08
73297;BME280;61524;50.938;11.396;2023-02-01T08:21:22;98850.53;;;3.75;82.80
73297;BME280;61524;50.938;11.396;2023-02-01T08:23:49;98860.31;;;3.75;83.31
73297;BME280;61524;50.938;11.396;2023-02-01T08:28:47;98870.47;;;3.78;82.93
73297;BME280;61524;50.938;11.396;2023-02-01T08:31:15;98862.31;;;3.79;83.30
73297;BME280;61524;50.938;11.396;2023-02-01T08:33:42;98884.50;;;3.78;83.76
73297;BME280;61524;50.938;11.396;2023-02-01T08:36:10;98889.16;;;3.69;84.38
73297;BME280;61524;50.938;11.396;2023-02-01T08:38:37;98892.84;;;3.68;84.86
73297;BME280;61524;50.938;11.396;2023-02-01T08:41:11;98878.63;;;3.63;85.68
73297;BME280;61524;50.938;11.396;2023-02-01T08:43:37;98887.38;;;3.57;86.73
73297;BME280;61524;50.938;11.396;2023-02-01T08:46:04;98882.72;;;3.46;88.62
73297;BME280;61524;50.938;11.396;2023-02-01T08:48:30;98881.91;;;3.25;90.17
73297;BME280;61524;50.938;11.396;2023-02-01T08:50:56;98886.38;;;3.18;91.85
73297;BME280;61524;50.938;11.396;2023-02-01T08:53:21;98880.28;;;3.24;91.78
73297;BME280;61524;50.938;11.396;2023-02-01T08:55:47;98888.41;;;3.36;90.25
73297;BME280;61524;50.938;11.396;2023-02-01T08:58:13;98896.72;;;3.46;90.02
73297;BME280;61524;50.938;11.396;2023-02-01T09:00:40;98887.97;;;3.52;89.88
73297;BME280;61524;50.938;11.396;2023-02-01T09:03:05;98902.59;;;3.61;90.49
73297;BME280;61524;50.938;11.396;2023-02-01T09:05:31;98899.34;;;3.66;89.66
73297;BME280;61524;50.938;11.396;2023-02-01T09:07:56;98883.06;;;3.69;89.32
73297;BME280;61524;50.938;11.396;2023-02-01T09:10:22;98885.13;;;3.67;87.92
73297;BME280;61524;50.938;11.396;2023-02-01T09:12:47;98886.72;;;3.75;88.08
73297;BME280;61524;50.938;11.396;2023-02-01T09:15:13;98918.44;;;3.75;87.52
73297;BME280;61524;50.938;11.396;2023-02-01T09:17:38;98893.41;;;3.84;86.64
73297;BME280;61524;50.938;11.396;2023-02-01T09:20:05;98909.03;;;4.05;85.29
73297;BME280;61524;50.938;11.396;2023-02-01T09:22:30;98901.41;;;4.29;85.48
73297;BME280;61524;50.938;11.396;2023-02-01T09:24:56;98901.22;;;4.24;84.70
73297;BME280;61524;50.938;11.396;2023-02-01T09:27:21;98912.41;;;4.19;83.82
73297;BME280;61524;50.938;11.396;2023-02-01T09:29:47;98920.78;;;4.16;83.83
73297;BME280;61524;50.938;11.396;2023-02-01T09:32:18;98914.25;;;4.25;82.78
73297;BME280;61524;50.938;11.396;2023-02-01T09:34:44;98922.53;;;4.35;82.70
73297;BME280;61524;50.938;11.396;2023-02-01T09:37:09;98918.66;;;4.44;81.79
73297;BME280;61524;50.938;11.396;2023-02-01T09:39:34;98927.78;;;4.48;81.48
73297;BME280;61524;50.938;11.396;2023-02-01T09:42:10;98931.28;;;4.42;81.71
73297;BME280;61524;50.938;11.396;2023-02-01T09:47:25;98908.94;;;4.32;82.38
73297;BME280;61524;50.938;11.396;2023-02-01T09:50:02;98924.81;;;4.32;83.35
73297;BME280;61524;50.938;11.396;2023-02-01T09:52:38;98930.63;;;4.54;81.83
73297;BME280;61524;50.938;11.396;2023-02-01T09:55:12;98926.06;;;4.67;82.82
73297;BME280;61524;50.938;11.396;2023-02-01T09:57:45;98942.53;;;4.76;82.24
73297;BME280;61524;50.938;11.396;2023-02-01T10:00:22;98938.97;;;4.89;82.29
73297;BME280;61524;50.938;11.396;2023-02-01T10:02:51;98931.13;;;4.76;82.29
73297;BME280;61524;50.938;11.396;2023-02-01T10:05:22;98914.03;;;4.71;82.18
73297;BME280;61524;50.938;11.396;2023-02-01T10:08:04;98945.31;;;4.88;82.40
73297;BME280;61524;50.938;11.396;2023-02-01T10:10:47;98949.44;;;4.77;81.36
73297;BME280;61524;50.938;11.396;2023-02-01T10:16:27;98938.84;;;4.77;81.52
73297;BME280;61524;50.938;11.396;2023-02-01T10:21:55;98940.63;;;4.90;81.19
73297;BME280;61524;50.938;11.396;2023-02-01T10:27:25;98925.28;;;4.98;80.86
73297;BME280;61524;50.938;11.396;2023-02-01T10:30:04;98930.97;;;5.02;80.64
73297;BME280;61524;50.938;11.396;2023-02-01T10:32:32;98912.81;;;5.06;80.53
73297;BME280;61524;50.938;11.396;2023-02-01T10:35:02;98921.19;;;5.03;80.52
73297;BME280;61524;50.938;11.396;2023-02-01T10:37:34;98921.84;;;4.98;80.32
73297;BME280;61524;50.938;11.396;2023-02-01T10:40:25;98926.84;;;5.13;79.82
73297;BME280;61524;50.938;11.396;2023-02-01T10:42:52;98944.38;;;5.39;79.71
73297;BME280;61524;50.938;11.396;2023-02-01T10:45:20;98930.81;;;5.53;79.24
73297;BME280;61524;50.938;11.396;2023-02-01T10:47:49;98937.78;;;5.48;78.02
73297;BME280;61524;50.938;11.396;2023-02-01T10:53:06;98922.00;;;5.60;77.90
73297;BME280;61524;50.938;11.396;2023-02-01T10:55:36;98913.44;;;5.58;77.43
73297;BME280;61524;50.938;11.396;2023-02-01T10:58:05;98922.38;;;5.63;77.85
73297;BME280;61524;50.938;11.396;2023-02-01T11:00:41;98911.09;;;5.49;76.77
73297;BME280;61524;50.938;11.396;2023-02-01T11:08:58;98913.34;;;5.71;76.94
73297;BME280;61524;50.938;11.396;2023-02-01T11:11:25;98900.59;;;5.79;76.16
73297;BME280;61524;50.938;11.396;2023-02-01T11:13:54;98900.06;;;5.96;75.59
73297;BME280;61524;50.938;11.396;2023-02-01T11:16:20;98891.91;;;6.16;75.90
73297;BME280;61524;50.938;11.396;2023-02-01T11:18:53;98889.09;;;5.92;75.03
73297;BME280;61524;50.938;11.396;2023-02-01T11:21:20;98889.94;;;5.86;74.41
73297;BME280;61524;50.938;11.396;2023-02-01T11:23:46;98882.44;;;5.83;74.67
73297;BME280;61524;50.938;11.396;2023-02-01T11:28:52;98900.94;;;5.65;75.78
73297;BME280;61524;50.938;11.396;2023-02-01T11:31:18;98902.91;;;5.76;75.66
73297;BME280;61524;50.938;11.396;2023-02-01T11:33:49;98902.34;;;5.67;75.92
73297;BME280;61524;50.938;11.396;2023-02-01T11:36:18;98894.63;;;5.66;76.42
73297;BME280;61524;50.938;11.396;2023-02-01T11:38:51;98916.72;;;5.60;75.92
73297;BME280;61524;50.938;11.396;2023-02-01T11:41:24;98899.00;;;5.53;76.08
73297;BME280;61524;50.938;11.396;2023-02-01T11:44:01;98897.28;;;5.41;76.41
73297;BME280;61524;50.938;11.396;2023-02-01T11:46:32;98901.50;;;5.48;76.10
73297;BME280;61524;50.938;11.396;2023-02-01T11:49:20;98906.91;;;5.60;76.69
73297;BME280;61524;50.938;11.396;2023-02-01T11:52:48;98905.16;;;5.72;76.31
73297;BME280;61524;50.938;11.396;2023-02-01T12:03:30;98904.03;;;5.62;75.77
73297;BME280;61524;50.938;11.396;2023-02-01T12:09:06;98901.00;;;5.58;76.20
73297;BME280;61524;50.938;11.396;2023-02-01T12:17:40;98896.56;;;5.52;77.50
73297;BME280;61524;50.938;11.396;2023-02-01T12:20:15;98897.41;;;5.28;77.00
73297;BME280;61524;50.938;11.396;2023-02-01T12:22:55;98892.47;;;5.31;78.19
73297;BME280;61524;50.938;11.396;2023-02-01T12:30:58;98883.94;;;5.29;77.65
73297;BME280;61524;50.938;11.396;2023-02-01T12:38:53;98868.41;;;5.33;77.59
73297;BME280;61524;50.938;11.396;2023-02-01T12:41:53;98865.97;;;5.31;76.62
73297;BME280;61524;50.938;11.396;2023-02-01T12:44:45;98867.88;;;5.24;77.11
73297;BME280;61524;50.938;11.396;2023-02-01T12:47:22;98867.66;;;5.25;76.96
73297;BME280;61524;50.938;11.396;2023-02-01T12:52:44;98857.59;;;5.09;76.99
73297;BME280;61524;50.938;11.396;2023-02-01T12:55:24;98855.19;;;5.08;77.71
73297;BME280;61524;50.938;11.396;2023-02-01T12:57:54;98860.63;;;5.13;78.41
73297;BME280;61524;50.938;11.396;2023-02-01T13:00:26;98856.16;;;5.13;77.74
73297;BME280;61524;50.938;11.396;2023-02-01T13:03:13;98842.69;;;5.15;77.26
73297;BME280;61524;50.938;11.396;2023-02-01T13:05:50;98841.66;;;5.16;76.41
73297;BME280;61524;50.938;11.396;2023-02-01T13:08:24;98822.53;;;5.14;76.35
73297;BME280;61524;50.938;11.396;2023-02-01T13:11:00;98825.25;;;5.07;76.49
73297;BME280;61524;50.938;11.396;2023-02-01T13:14:32;98834.00;;;5.08;78.05
73297;BME280;61524;50.938;11.396;2023-02-01T13:16:34;98824.28;;;5.02;77.04
73297;BME280;61524;50.938;11.396;2023-02-01T13:19:20;98830.63;;;4.94;77.19
73297;BME280;61524;50.938;11.396;2023-02-01T13:21:57;98814.34;;;4.97;77.51
73297;BME280;61524;50.938;11.396;2023-02-01T13:24:27;98790.50;;;4.97;77.90
73297;BME280;61524;50.938;11.396;2023-02-01T13:26:55;98795.78;;;4.97;76.75
73297;BME280;61524;50.938;11.396;2023-02-01T13:29:23;98803.34;;;4.93;77.23
73297;BME280;61524;50.938;11.396;2023-02-01T13:34:58;98784.50;;;4.83;77.67
73297;BME280;61524;50.938;11.396;2023-02-01T13:40:37;98759.94;;;4.76;77.82
73297;BME280;61524;50.938;11.396;2023-02-01T13:43:22;98750.38;;;4.75;76.79
73297;BME280;61524;50.938;11.396;2023-02-01T13:45:51;98752.78;;;4.77;77.52
73297;BME280;61524;50.938;11.396;2023-02-01T13:48:26;98756.47;;;4.76;78.00
73297;BME280;61524;50.938;11.396;2023-02-01T13:50:56;98751.94;;;4.83;76.77
73297;BME280;61524;50.938;11.396;2023-02-01T13:53:31;98762.91;;;4.86;77.70
73297;BME280;61524;50.938;11.396;2023-02-01T13:56:00;98774.69;;;4.90;76.89
73297;BME280;61524;50.938;11.396;2023-02-01T13:58:35;98766.78;;;5.09;75.81
73297;BME280;61524;50.938;11.396;2023-02-01T14:03:55;98775.91;;;5.13;74.96
73297;BME280;61524;50.938;11.396;2023-02-01T14:11:44;98780.59;;;5.11;74.99
73297;BME280;61524;50.938;11.396;2023-02-01T14:16:38;98762.13;;;5.04;75.38
73297;BME280;61524;50.938;11.396;2023-02-01T14:19:08;98744.94;;;4.88;75.35
73297;BME280;61524;50.938;11.396;2023-02-01T14:21:47;98739.66;;;4.88;76.03
73297;BME280;61524;50.938;11.396;2023-02-01T14:24:33;98736.44;;;4.86;75.14
73297;BME280;61524;50.938;11.396;2023-02-01T14:27:02;98724.16;;;4.92;75.33
73297;BME280;61524;50.938;11.396;2023-02-01T14:29:36;98724.41;;;4.90;75.37
73297;BME280;61524;50.938;11.396;2023-02-01T14:32:21;98731.22;;;4.98;74.57
73297;BME280;61524;50.938;11.396;2023-02-01T14:42:33;98716.75;;;5.00;74.20
73297;BME280;61524;50.938;11.396;2023-02-01T14:57:57;98714.53;;;4.97;74.58
73297;BME280;61524;50.938;11.396;2023-02-01T15:00:30;98712.78;;;4.91;73.93
73297;BME280;61524;50.938;11.396;2023-02-01T15:05:39;98694.31;;;4.85;74.92
73297;BME280;61524;50.938;11.396;2023-02-01T15:08:16;98711.88;;;4.79;76.58
73297;BME280;61524;50.938;11.396;2023-02-01T15:10:47;98701.13;;;4.74;75.45
73297;BME280;61524;50.938;11.396;2023-02-01T15:13:25;98708.91;;;4.69;76.62
73297;BME280;61524;50.938;11.396;2023-02-01T15:16:21;98693.91;;;4.63;76.40
73297;BME280;61524;50.938;11.396;2023-02-01T15:18:48;98692.06;;;4.63;75.78
73297;BME280;61524;50.938;11.396;2023-02-01T15:21:18;98683.31;;;4.63;75.85
73297;BME280;61524;50.938;11.396;2023-02-01T15:23:44;98692.63;;;4.65;75.75